Time;durP1;ratioP1;P1;durP2;ratioP2;P2;SDS_P1;SDS_P2;PMS_P1;PMS_P2;Temp;Humidity;BMP_temperature;BMP_pressure;BME280_temperature;BME280_humidity;BME280_pressure;Samples;Min_cycle;Max_cycle;Signal;HPM_P1;HPM_P2
2022/05/04 00:02:55;;;;;;;;;;;10.30;1.00;;;;;;10207411;28;84157;-55
2022/05/04 00:07:55;;;;;;;;;;;10.20;1.00;;;;;;10244684;28;84304;-54
2022/05/04 00:12:57;;;;;;;;;;;10.10;1.00;;;;;;10247413;28;85809;-53
2022/05/04 00:17:57;;;;;;;;;;;10.00;1.00;;;;;;10206325;28;84913;-52
2022/05/04 00:22:58;;;;;;;;;;;9.90;1.00;;;;;;10190020;28;84790;-54
2022/05/04 00:28:02;;;;;;;;;;;9.80;1.00;;;;;;10244426;28;84068;-55
2022/05/04 00:33:03;;;;;;;;;;;9.80;1.00;;;;;;10246633;28;84919;-55
2022/05/04 00:38:03;;;;;;;;;;;9.80;1.00;;;;;;10188670;28;87076;-54
2022/05/04 00:43:05;;;;;;;;;;;9.70;1.00;;;;;;10206122;28;84944;-55
2022/05/04 00:48:05;;;;;;;;;;;9.70;1.00;;;;;;10187348;28;87090;-54
2022/05/04 00:53:06;;;;;;;;;;;9.60;1.00;;;;;;10206467;28;84427;-55
2022/05/04 01:03:31;;;;;;;;;;;9.50;1.00;;;;;;10218650;28;84209;-55
2022/05/04 01:08:31;;;;;;;;;;;9.60;1.00;;;;;;10224732;28;84923;-58
2022/05/04 01:13:32;;;;;;;;;;;9.50;1.00;;;;;;10206095;28;84134;-54
2022/05/04 01:18:32;;;;;;;;;;;9.40;1.00;;;;;;10224879;28;84696;-54
2022/05/04 01:23:33;;;;;;;;;;;9.40;1.00;;;;;;10244170;28;84923;-52
2022/05/04 01:28:34;;;;;;;;;;;9.30;1.00;;;;;;10211357;28;84288;-52
2022/05/04 01:33:34;;;;;;;;;;;9.20;1.00;;;;;;10236676;28;84985;-53
2022/05/04 01:38:35;;;;;;;;;;;9.10;1.00;;;;;;10246187;28;84908;-54
2022/05/04 01:43:36;;;;;;;;;;;9.00;1.00;;;;;;10250936;28;84173;-54
2022/05/04 01:48:36;;;;;;;;;;;9.00;1.00;;;;;;10198220;28;86148;-51
2022/05/04 01:53:37;;;;;;;;;;;8.90;1.00;;;;;;10210905;28;84713;-51
2022/05/04 01:58:38;;;;;;;;;;;8.90;1.00;;;;;;10224251;28;84973;-54
2022/05/04 02:03:38;;;;;;;;;;;8.80;1.00;;;;;;10232470;28;86298;-52
2022/05/04 02:08:41;;;;;;;;;;;8.70;1.00;;;;;;10215381;28;84887;-54
2022/05/04 02:13:41;;;;;;;;;;;8.70;1.00;;;;;;10209831;28;84905;-52
2022/05/04 02:18:42;;;;;;;;;;;8.60;1.00;;;;;;10242235;28;84474;-52
2022/05/04 02:23:43;;;;;;;;;;;8.60;1.00;;;;;;10232563;28;87778;-57
2022/05/04 02:28:44;;;;;;;;;;;8.60;1.00;;;;;;10214563;28;85036;-55
2022/05/04 02:33:47;;;;;;;;;;;8.50;1.00;;;;;;10191264;28;86038;-53
2022/05/04 02:38:48;;;;;;;;;;;8.50;1.00;;;;;;10252156;22;84887;-55
2022/05/04 02:43:49;;;;;;;;;;;8.50;1.00;;;;;;10210252;28;84067;-48
2022/05/04 02:48:49;;;;;;;;;;;8.40;1.00;;;;;;10202564;28;84857;-48
2022/05/04 02:53:50;;;;;;;;;;;8.30;1.00;;;;;;10209867;28;84315;-49
2022/05/04 02:58:53;;;;;;;;;;;8.30;1.00;;;;;;10205747;28;84938;-55
2022/05/04 03:03:53;;;;;;;;;;;8.20;1.00;;;;;;10204711;28;84963;-49
2022/05/04 03:08:54;;;;;;;;;;;8.10;1.00;;;;;;10189610;28;84216;-48
2022/05/04 03:13:54;;;;;;;;;;;8.10;1.00;;;;;;10208533;28;84926;-49
2022/05/04 03:18:55;;;;;;;;;;;8.10;1.00;;;;;;10201468;28;84777;-49
2022/05/04 03:23:56;;;;;;;;;;;8.10;1.00;;;;;;10208417;28;84027;-53
2022/05/04 03:28:56;;;;;;;;;;;8.00;1.00;;;;;;10208751;28;85234;-56
2022/05/04 03:33:57;;;;;;;;;;;7.90;1.00;;;;;;10199322;28;85921;-52
2022/05/04 03:38:58;;;;;;;;;;;7.90;1.00;;;;;;10221937;28;86846;-58
2022/05/04 03:43:59;;;;;;;;;;;7.80;1.00;;;;;;10207028;28;85006;-52
2022/05/04 03:48:59;;;;;;;;;;;7.70;1.00;;;;;;10217256;28;84880;-55
2022/05/04 03:54:00;;;;;;;;;;;7.60;1.00;;;;;;10206775;28;84137;-54
2022/05/04 03:59:01;;;;;;;;;;;7.70;3.70;;;;;;10194227;28;84203;-54
2022/05/04 04:04:03;;;;;;;;;;;7.60;1.00;;;;;;10207840;28;84177;-51
2022/05/04 04:09:04;;;;;;;;;;;7.60;4.80;;;;;;10211575;28;86954;-51
2022/05/04 04:14:05;;;;;;;;;;;7.60;1.00;;;;;;10214317;28;84221;-55
2022/05/04 04:19:05;;;;;;;;;;;7.70;1.00;;;;;;10207762;28;84162;-54
2022/05/04 04:24:06;;;;;;;;;;;7.60;1.00;;;;;;10209882;28;84823;-54
2022/05/04 04:29:07;;;;;;;;;;;7.70;1.00;;;;;;10209909;28;85065;-50
2022/05/04 04:34:07;;;;;;;;;;;7.70;1.00;;;;;;10227280;28;85218;-54
2022/05/04 04:39:08;;;;;;;;;;;7.70;1.00;;;;;;10171561;28;86159;-50
2022/05/04 04:44:09;;;;;;;;;;;7.90;1.00;;;;;;10207163;28;84014;-54
2022/05/04 04:49:09;;;;;;;;;;;7.80;1.00;;;;;;10226366;28;84825;-54
2022/05/04 04:54:10;;;;;;;;;;;7.80;1.00;;;;;;10207125;28;84137;-53
2022/05/04 04:59:11;;;;;;;;;;;7.80;1.00;;;;;;10220250;28;84427;-53
2022/05/04 05:04:11;;;;;;;;;;;8.00;1.00;;;;;;10231569;28;84721;-56
2022/05/04 05:09:12;;;;;;;;;;;8.10;1.00;;;;;;10213668;28;86078;-51
2022/05/04 05:19:31;;;;;;;;;;;8.30;1.00;;;;;;10218718;28;85959;-49
2022/05/04 05:24:32;;;;;;;;;;;8.30;1.00;;;;;;10187616;28;85028;-51
2022/05/04 05:29:32;;;;;;;;;;;8.50;1.00;;;;;;10190195;28;86940;-51
2022/05/04 05:34:34;;;;;;;;;;;8.60;1.00;;;;;;10214270;28;90789;-54
2022/05/04 05:39:35;;;;;;;;;;;8.50;1.00;;;;;;10208498;28;84490;-54
2022/05/04 05:44:35;;;;;;;;;;;8.70;1.00;;;;;;10195523;28;84490;-54
2022/05/04 05:49:36;;;;;;;;;;;8.80;1.00;;;;;;10217355;28;86956;-53
2022/05/04 05:54:37;;;;;;;;;;;8.90;1.00;;;;;;10209990;28;84463;-55
2022/05/04 05:59:38;;;;;;;;;;;9.00;1.00;;;;;;10236622;28;85164;-51
2022/05/04 06:04:38;;;;;;;;;;;9.10;1.00;;;;;;10217398;28;84661;-51
2022/05/04 06:09:39;;;;;;;;;;;9.40;1.00;;;;;;10210403;28;84063;-48
2022/05/04 06:14:39;;;;;;;;;;;9.40;1.00;;;;;;10243186;28;84132;-51
2022/05/04 06:19:40;;;;;;;;;;;9.70;1.00;;;;;;10206789;28;85043;-52
2022/05/04 06:24:40;;;;;;;;;;;9.80;1.00;;;;;;10240824;28;84932;-47
2022/05/04 06:35:00;;;;;;;;;;;10.20;1.00;;;;;;10209628;28;84281;-53
2022/05/04 06:40:00;;;;;;;;;;;10.40;1.00;;;;;;10216229;28;85420;-53
2022/05/04 06:45:02;;;;;;;;;;;10.50;1.00;;;;;;10203433;28;84292;-53
2022/05/04 06:50:03;;;;;;;;;;;10.80;1.00;;;;;;10191376;28;85183;-49
2022/05/04 06:55:05;;;;;;;;;;;11.20;1.00;;;;;;10208524;28;84205;-48
2022/05/04 07:00:06;;;;;;;;;;;11.70;1.00;;;;;;10223686;28;84266;-54
2022/05/04 07:05:06;;;;;;;;;;;12.10;1.00;;;;;;10235202;28;84877;-51
2022/05/04 07:10:07;;;;;;;;;;;12.60;99.90;;;;;;10216433;28;84741;-53
2022/05/04 07:15:08;;;;;;;;;;;12.90;99.90;;;;;;10209029;28;86269;-58
2022/05/04 07:20:09;;;;;;;;;;;13.60;99.90;;;;;;10237356;28;86045;-54
2022/05/04 07:25:10;;;;;;;;;;;14.40;1.00;;;;;;10232439;28;85940;-54
2022/05/04 07:30:11;;;;;;;;;;;14.70;1.00;;;;;;10231926;28;86678;-52
2022/05/04 07:35:12;;;;;;;;;;;15.10;99.90;;;;;;10248840;28;84318;-57
2022/05/04 07:45:31;;;;;;;;;;;15.60;1.00;;;;;;10229933;28;87094;-65
2022/05/04 07:50:32;;;;;;;;;;;15.30;1.00;;;;;;10234123;28;84860;-64
2022/05/04 07:55:35;;;;;;;;;;;15.40;1.00;;;;;;10248182;28;84320;-66
2022/05/04 08:05:55;;;;;;;;;;;15.70;1.00;;;;;;10210878;28;84945;-67
2022/05/04 08:10:56;;;;;;;;;;;15.80;99.90;;;;;;10190975;28;87044;-62
2022/05/04 08:15:56;;;;;;;;;;;15.80;99.90;;;;;;10207059;28;84742;-64
2022/05/04 08:20:57;;;;;;;;;;;15.80;99.90;;;;;;10206662;28;84015;-63
2022/05/04 08:25:57;;;;;;;;;;;15.90;1.00;;;;;;10206008;28;84965;-63
2022/05/04 08:30:58;;;;;;;;;;;16.50;99.90;;;;;;10206311;28;84155;-62
2022/05/04 08:35:59;;;;;;;;;;;16.60;1.00;;;;;;10205699;28;84047;-61
2022/05/04 08:41:01;;;;;;;;;;;16.40;1.00;;;;;;10259578;22;84959;-59
2022/05/04 08:46:03;;;;;;;;;;;16.20;1.00;;;;;;10284181;28;84884;-58
2022/05/04 08:51:04;;;;;;;;;;;16.50;1.00;;;;;;10283408;28;84109;-57
2022/05/04 08:56:05;;;;;;;;;;;17.30;99.90;;;;;;10283338;28;84956;-61
2022/05/04 09:01:06;;;;;;;;;;;17.70;1.00;;;;;;10245567;28;85021;-59
2022/05/04 09:06:07;;;;;;;;;;;18.60;1.00;;;;;;10263081;28;84901;-59
2022/05/04 09:11:14;;;;;;;;;;;19.50;1.00;;;;;;10249601;28;84867;-60
2022/05/04 09:16:29;;;;;;;;;;;19.50;99.90;;;;;;10283512;28;84136;-59
2022/05/04 09:21:30;;;;;;;;;;;20.20;1.00;;;;;;10244425;28;84419;-59
2022/05/04 09:26:31;;;;;;;;;;;21.10;99.90;;;;;;10242765;28;84010;-58
2022/05/04 09:31:31;;;;;;;;;;;21.30;1.00;;;;;;10281643;28;84267;-57
2022/05/04 09:36:33;;;;;;;;;;;21.30;1.00;;;;;;10283151;28;84933;-58
2022/05/04 09:46:43;;;;;;;;;;;21.60;99.90;;;;;;10251391;28;85112;-60
2022/05/04 09:51:48;;;;;;;;;;;21.70;99.90;;;;;;10267838;28;84174;-49
2022/05/04 09:56:49;;;;;;;;;;;22.10;1.00;;;;;;10266254;28;84137;-54
2022/05/04 10:01:51;;;;;;;;;;;23.20;1.00;;;;;;10249237;28;84160;-56
2022/05/04 10:06:52;;;;;;;;;;;23.30;1.00;;;;;;10263019;28;84108;-59
2022/05/04 10:11:59;;;;;;;;;;;22.40;1.00;;;;;;10289455;28;84182;-51
2022/05/04 10:17:04;;;;;;;;;;;22.50;1.00;;;;;;10271660;28;84300;-50
2022/05/04 10:22:08;;;;;;;;;;;21.90;1.00;;;;;;10257652;28;84119;-52
2022/05/04 10:27:17;;;;;;;;;;;21.40;1.00;;;;;;10249636;28;84997;-55
2022/05/04 10:32:32;;;;;;;;;;;21.60;1.00;;;;;;10251893;28;84971;-56
2022/05/04 10:37:33;;;;;;;;;;;23.20;1.00;;;;;;10288740;28;84257;-54
2022/05/04 10:42:56;;;;;;;;;;;23.30;1.00;;;;;;10282670;28;85574;-59
2022/05/04 10:48:16;;;;;;;;;;;22.50;1.00;;;;;;10239835;28;84092;-57
2022/05/04 10:53:19;;;;;;;;;;;21.50;1.00;;;;;;10249000;28;84907;-56
2022/05/04 10:58:29;;;;;;;;;;;20.20;1.00;;;;;;10248703;28;84871;-57
2022/05/04 11:03:36;;;;;;;;;;;21.20;1.00;;;;;;10248325;28;84793;-59
2022/05/04 11:08:45;;;;;;;;;;;22.80;1.00;;;;;;10247772;28;85095;-47
2022/05/04 11:13:46;;;;;;;;;;;23.90;1.00;;;;;;10244503;28;85006;-47
2022/05/04 11:18:46;;;;;;;;;;;24.30;99.90;;;;;;10228932;28;85861;-46
2022/05/04 11:23:48;;;;;;;;;;;24.60;99.90;;;;;;10245529;28;84588;-46
2022/05/04 11:28:49;;;;;;;;;;;24.90;99.90;;;;;;10245479;28;84838;-44
2022/05/04 11:33:50;;;;;;;;;;;25.30;99.90;;;;;;10246180;28;84956;-46
2022/05/04 11:38:51;;;;;;;;;;;26.10;99.90;;;;;;10246702;28;85088;-54
2022/05/04 11:43:51;;;;;;;;;;;26.10;92.60;;;;;;10246450;28;84909;-53
2022/05/04 11:48:55;;;;;;;;;;;25.70;1.00;;;;;;10246096;28;84937;-57
2022/05/04 11:53:55;;;;;;;;;;;25.00;1.00;;;;;;10248111;28;84918;-55
2022/05/04 11:58:57;;;;;;;;;;;25.60;1.00;;;;;;10246462;28;84102;-51
2022/05/04 12:03:58;;;;;;;;;;;25.10;1.00;;;;;;10246351;28;84624;-56
2022/05/04 12:08:59;;;;;;;;;;;24.70;1.00;;;;;;10245477;28;85744;-54
2022/05/04 12:13:59;;;;;;;;;;;25.20;1.00;;;;;;10245640;28;84874;-57
2022/05/04 12:19:00;;;;;;;;;;;25.60;1.00;;;;;;10246408;28;84555;-55
2022/05/04 12:24:01;;;;;;;;;;;23.50;1.00;;;;;;10246414;28;84879;-55
2022/05/04 12:34:21;;;;;;;;;;;22.60;1.00;;;;;;10262358;28;84741;-54
2022/05/04 12:39:22;;;;;;;;;;;23.80;1.00;;;;;;10245727;28;84337;-53
2022/05/04 12:44:23;;;;;;;;;;;24.90;1.00;;;;;;10261588;28;84780;-48
2022/05/04 12:49:24;;;;;;;;;;;25.30;1.00;;;;;;10254226;28;84874;-53
2022/05/04 12:54:24;;;;;;;;;;;24.30;1.00;;;;;;10247979;28;84347;-51
2022/05/04 12:59:25;;;;;;;;;;;24.00;1.00;;;;;;10253516;28;84347;-55
2022/05/04 13:04:25;;;;;;;;;;;24.50;1.00;;;;;;10248557;28;85020;-58
2022/05/04 13:09:28;;;;;;;;;;;24.50;1.00;;;;;;10241154;28;85037;-47
2022/05/04 13:14:29;;;;;;;;;;;25.00;1.00;;;;;;10248272;28;84787;-52
2022/05/04 13:19:29;;;;;;;;;;;24.70;1.00;;;;;;10260544;28;84130;-55
2022/05/04 13:24:30;;;;;;;;;;;25.10;1.00;;;;;;10268185;28;84946;-53
2022/05/04 13:29:30;;;;;;;;;;;25.70;1.00;;;;;;10272783;28;85026;-49
2022/05/04 13:34:31;;;;;;;;;;;24.80;1.00;;;;;;10279484;28;84077;-46
2022/05/04 13:39:31;;;;;;;;;;;25.00;1.00;;;;;;10273701;28;84265;-52
2022/05/04 13:44:32;;;;;;;;;;;25.10;1.00;;;;;;10270628;28;84925;-51
2022/05/04 13:49:32;;;;;;;;;;;25.50;1.00;;;;;;10269874;28;84217;-47
2022/05/04 13:54:33;;;;;;;;;;;25.30;1.00;;;;;;10251754;28;84926;-49
2022/05/04 13:59:33;;;;;;;;;;;25.60;1.00;;;;;;10261610;28;85897;-53
2022/05/04 14:04:34;;;;;;;;;;;25.60;1.00;;;;;;10267794;28;84817;-51
2022/05/04 14:09:35;;;;;;;;;;;25.20;1.00;;;;;;10266413;28;84817;-55
2022/05/04 14:19:54;;;;;;;;;;;24.40;1.00;;;;;;10246623;28;84211;-52
2022/05/04 14:24:55;;;;;;;;;;;23.60;1.00;;;;;;10248620;28;84134;-53
2022/05/04 14:29:57;;;;;;;;;;;22.40;1.00;;;;;;10245935;28;84218;-52
2022/05/04 14:34:58;;;;;;;;;;;21.30;1.00;;;;;;10243943;28;85016;-54
2022/05/04 14:39:58;;;;;;;;;;;20.80;1.00;;;;;;10288060;22;85669;-58
2022/05/04 14:44:59;;;;;;;;;;;20.30;1.00;;;;;;10355550;28;84390;-55
2022/05/04 14:49:59;;;;;;;;;;;20.50;1.00;;;;;;10362127;28;84133;-55
2022/05/04 14:55:00;;;;;;;;;;;20.40;1.00;;;;;;10409173;28;84195;-59
2022/05/04 15:00:00;;;;;;;;;;;20.10;1.00;;;;;;10411756;28;84959;-57
2022/05/04 15:05:01;;;;;;;;;;;20.00;1.00;;;;;;10404569;28;86573;-57
2022/05/04 15:10:02;;;;;;;;;;;20.00;1.00;;;;;;10410212;28;84800;-58
2022/05/04 15:15:03;;;;;;;;;;;19.80;1.00;;;;;;10405606;28;85035;-56
2022/05/04 15:20:03;;;;;;;;;;;19.50;1.00;;;;;;10370234;28;84933;-57
2022/05/04 15:25:04;;;;;;;;;;;19.20;1.00;;;;;;10383397;28;84898;-57
2022/05/04 15:30:06;;;;;;;;;;;19.00;1.00;;;;;;10404124;28;85162;-55
2022/05/04 15:35:07;;;;;;;;;;;19.00;1.00;;;;;;10396255;28;84889;-52
2022/05/04 15:40:09;;;;;;;;;;;18.90;1.00;;;;;;10380131;28;84818;-55
2022/05/04 15:45:10;;;;;;;;;;;19.00;1.00;;;;;;10373332;28;84772;-60
2022/05/04 15:50:11;;;;;;;;;;;19.10;1.00;;;;;;10383685;28;84252;-54
2022/05/04 15:55:13;;;;;;;;;;;19.30;1.00;;;;;;10371113;28;85079;-56
2022/05/04 16:00:14;;;;;;;;;;;19.10;1.00;;;;;;10375280;28;84088;-49
2022/05/04 16:05:15;;;;;;;;;;;19.00;1.00;;;;;;10386512;28;85002;-53
2022/05/04 16:10:15;;;;;;;;;;;18.90;1.00;;;;;;10411583;28;84384;-54
2022/05/04 16:15:17;;;;;;;;;;;18.80;1.00;;;;;;10385005;28;84215;-54
2022/05/04 16:25:38;;;;;;;;;;;18.50;1.00;;;;;;10402187;28;84911;-53
2022/05/04 16:30:38;;;;;;;;;;;18.40;1.00;;;;;;10409962;28;84860;-53
2022/05/04 16:35:40;;;;;;;;;;;18.10;1.00;;;;;;10407910;28;84998;-56
2022/05/04 16:40:40;;;;;;;;;;;18.00;1.00;;;;;;10403120;28;84421;-55
2022/05/04 16:45:41;;;;;;;;;;;18.10;1.00;;;;;;10389346;28;84952;-54
2022/05/04 16:50:43;;;;;;;;;;;18.10;1.00;;;;;;10387370;28;84917;-55
2022/05/04 16:55:44;;;;;;;;;;;18.10;1.00;;;;;;10405177;28;84893;-52
2022/05/04 17:00:44;;;;;;;;;;;18.00;1.00;;;;;;10397706;28;85055;-50
2022/05/04 17:05:45;;;;;;;;;;;17.90;1.00;;;;;;10400073;28;84965;-50
2022/05/04 17:10:45;;;;;;;;;;;17.90;1.00;;;;;;10397302;28;86090;-51
2022/05/04 17:15:46;;;;;;;;;;;17.90;1.00;;;;;;10377036;28;84668;-53
2022/05/04 17:20:47;;;;;;;;;;;17.80;1.00;;;;;;10405001;28;85003;-55
2022/05/04 17:25:48;;;;;;;;;;;17.70;1.00;;;;;;10390563;28;84033;-51
2022/05/04 17:30:48;;;;;;;;;;;17.60;1.00;;;;;;10408825;28;85102;-48
2022/05/04 17:41:22;;;;;;;;;;;17.50;99.90;;;;;;10370837;28;84936;-51
2022/05/04 17:46:22;;;;;;;;;;;17.40;99.90;;;;;;10415757;28;84157;-49
2022/05/04 17:51:24;;;;;;;;;;;17.20;99.90;;;;;;10409889;28;85688;-50
2022/05/04 17:56:26;;;;;;;;;;;17.10;99.90;;;;;;10413615;28;84739;-50
2022/05/04 18:06:45;;;;;;;;;;;17.10;99.90;;;;;;10403137;28;84914;-55
2022/05/04 18:11:46;;;;;;;;;;;17.00;99.90;;;;;;10413030;28;85473;-48
2022/05/04 18:16:46;;;;;;;;;;;16.80;1.00;;;;;;10392668;28;84031;-53
2022/05/04 18:21:47;;;;;;;;;;;16.80;1.00;;;;;;10371955;28;85106;-55
2022/05/04 18:26:48;;;;;;;;;;;16.70;1.00;;;;;;10382687;28;84984;-54
2022/05/04 18:31:49;;;;;;;;;;;16.60;1.00;;;;;;10396678;28;84030;-57
2022/05/04 18:36:49;;;;;;;;;;;16.40;1.00;;;;;;10377547;28;85066;-56
2022/05/04 18:41:50;;;;;;;;;;;16.30;1.00;;;;;;10375970;28;86654;-54
2022/05/04 18:46:51;;;;;;;;;;;16.20;1.00;;;;;;10377817;28;84207;-56
2022/05/04 18:51:52;;;;;;;;;;;16.10;1.00;;;;;;10380431;28;84207;-57
2022/05/04 18:56:53;;;;;;;;;;;16.00;84.30;;;;;;10366601;28;86049;-54
2022/05/04 19:01:53;;;;;;;;;;;15.90;99.90;;;;;;10374735;28;84589;-54
2022/05/04 19:06:54;;;;;;;;;;;15.80;99.90;;;;;;10377195;28;85086;-53
2022/05/04 19:11:54;;;;;;;;;;;15.80;1.00;;;;;;10396566;28;84700;-55
2022/05/04 19:16:55;;;;;;;;;;;15.70;1.00;;;;;;10356181;28;85919;-55
2022/05/04 19:21:55;;;;;;;;;;;15.60;1.00;;;;;;10393101;28;84192;-56
2022/05/04 19:26:56;;;;;;;;;;;15.50;1.00;;;;;;10368210;28;85050;-58
2022/05/04 19:31:56;;;;;;;;;;;15.40;99.90;;;;;;10401608;28;84938;-53
2022/05/04 19:36:57;;;;;;;;;;;15.30;99.90;;;;;;10401994;28;84168;-56
2022/05/04 19:41:57;;;;;;;;;;;15.20;1.00;;;;;;10399323;28;86265;-54
2022/05/04 19:46:58;;;;;;;;;;;15.00;1.00;;;;;;10375531;28;85931;-54
2022/05/04 19:51:58;;;;;;;;;;;14.90;1.00;;;;;;10372046;28;83985;-55
2022/05/04 19:56:59;;;;;;;;;;;14.70;1.00;;;;;;10381055;28;85038;-56
2022/05/04 20:01:59;;;;;;;;;;;14.70;1.00;;;;;;10391081;28;84713;-56
2022/05/04 20:07:01;;;;;;;;;;;14.60;1.00;;;;;;10392693;28;90688;-56
2022/05/04 20:12:01;;;;;;;;;;;14.50;1.00;;;;;;10390826;28;84817;-56
2022/05/04 20:17:02;;;;;;;;;;;14.40;1.00;;;;;;10389593;28;84961;-56
2022/05/04 20:22:05;;;;;;;;;;;14.30;1.00;;;;;;10390077;28;84793;-57
2022/05/04 20:27:05;;;;;;;;;;;14.20;99.90;;;;;;10386149;28;84308;-55
2022/05/04 20:32:06;;;;;;;;;;;14.20;99.90;;;;;;10395979;28;84245;-55
2022/05/04 20:37:07;;;;;;;;;;;14.10;1.00;;;;;;10389437;28;84190;-50
2022/05/04 20:42:07;;;;;;;;;;;14.00;99.90;;;;;;10379996;22;91689;-50
2022/05/04 20:47:09;;;;;;;;;;;14.00;1.00;;;;;;10325969;28;85262;-52
2022/05/04 20:52:13;;;;;;;;;;;13.80;1.00;;;;;;10297880;28;84975;-53
2022/05/04 20:57:14;;;;;;;;;;;13.60;99.90;;;;;;10286819;28;85997;-52
2022/05/04 21:02:14;;;;;;;;;;;13.60;1.00;;;;;;10301275;28;84802;-52
2022/05/04 21:07:15;;;;;;;;;;;13.60;99.90;;;;;;10284737;28;85442;-53
2022/05/04 21:12:15;;;;;;;;;;;13.50;99.90;;;;;;10282463;28;85352;-48
2022/05/04 21:17:16;;;;;;;;;;;13.40;1.00;;;;;;10278945;28;84906;-52
2022/05/04 21:22:17;;;;;;;;;;;13.40;1.00;;;;;;10286375;28;84016;-54
2022/05/04 21:27:18;;;;;;;;;;;13.30;1.00;;;;;;10286305;28;84103;-55
2022/05/04 21:32:20;;;;;;;;;;;13.10;1.00;;;;;;10286660;28;84255;-55
2022/05/04 21:37:20;;;;;;;;;;;13.00;1.00;;;;;;10286692;28;84109;-55
2022/05/04 21:42:21;;;;;;;;;;;12.90;1.00;;;;;;10286685;28;85556;-54
2022/05/04 21:47:22;;;;;;;;;;;12.90;99.90;;;;;;10278832;28;85182;-54
2022/05/04 21:52:23;;;;;;;;;;;12.70;1.00;;;;;;10280228;28;85668;-56
2022/05/04 21:57:23;;;;;;;;;;;12.70;1.00;;;;;;10280573;28;86211;-50
2022/05/04 22:02:25;;;;;;;;;;;12.70;1.00;;;;;;10292625;28;84138;-53
2022/05/04 22:07:26;;;;;;;;;;;12.60;1.00;;;;;;10293019;28;84048;-53
2022/05/04 22:17:46;;;;;;;;;;;12.40;1.00;;;;;;10293975;28;84173;-53
2022/05/04 22:22:47;;;;;;;;;;;12.40;1.00;;;;;;10291764;28;86055;-51
2022/05/04 22:27:48;;;;;;;;;;;12.40;1.00;;;;;;10292754;28;88225;-50
2022/05/04 22:32:49;;;;;;;;;;;12.30;22.20;;;;;;10291830;28;84169;-49
2022/05/04 22:37:49;;;;;;;;;;;12.30;73.60;;;;;;10292575;28;84741;-51
2022/05/04 22:42:50;;;;;;;;;;;12.20;99.90;;;;;;10291373;28;84246;-50
2022/05/04 22:47:51;;;;;;;;;;;12.30;99.90;;;;;;10273292;28;84950;-53
2022/05/04 22:52:52;;;;;;;;;;;12.30;99.90;;;;;;10290408;28;84290;-52
2022/05/04 22:57:52;;;;;;;;;;;12.30;99.90;;;;;;10289572;28;84186;-51
2022/05/04 23:02:53;;;;;;;;;;;12.30;99.90;;;;;;10290741;28;84277;-52
2022/05/04 23:07:54;;;;;;;;;;;12.20;99.90;;;;;;10289572;28;85100;-52
2022/05/04 23:12:54;;;;;;;;;;;12.20;99.90;;;;;;10272972;28;85557;-53
2022/05/04 23:17:55;;;;;;;;;;;12.20;99.90;;;;;;10291137;28;84100;-51
2022/05/04 23:22:55;;;;;;;;;;;12.30;99.90;;;;;;10292244;28;85382;-51
2022/05/04 23:27:56;;;;;;;;;;;12.30;99.90;;;;;;10289966;28;84944;-50
2022/05/04 23:32:56;;;;;;;;;;;12.40;99.90;;;;;;10288782;28;85091;-49
2022/05/04 23:37:58;;;;;;;;;;;12.30;99.90;;;;;;10287115;28;84036;-54
2022/05/04 23:42:58;;;;;;;;;;;12.20;99.90;;;;;;10286859;28;84013;-51
2022/05/04 23:47:59;;;;;;;;;;;12.20;99.90;;;;;;10287802;28;84931;-52
2022/05/04 23:53:00;;;;;;;;;;;12.20;99.90;;;;;;10286828;28;84302;-51
2022/05/04 23:58:01;;;;;;;;;;;12.20;99.90;;;;;;10287132;28;84375;-51
